Terminal Aerodrome Forecast
Issued by NWS

Home | Current Version | Previous Version | Graphics & Text | Print | Product List | Glossary Off
Versions: 1 2 3 4 5 6 7 8 9 10 11 12 13 14 15 16 17 18 19 20

000
FTUS43 KGRB 271726
TAFCWA
TAF
KCWA 271726Z 2718/2818 29009G15KT 3SM -RASNPL SCT005 OVC016
      TEMPO 2718/2719 1/2SM -SN FZFG BKN006
     FM272000 29012G20KT 5SM -SNDZ OVC011
     FM272100 27013G21KT P6SM OVC015
     FM280000 26011G20KT P6SM OVC019
     FM280300 26009KT P6SM BKN018
     FM281100 26008KT P6SM SCT020 SCT100=

USA.gov is the U.S. government's official web portal to all federal, state and local government web resources and services.